createdAt,value
2022-08-11T00:00:00.910Z,1023.53
2022-08-11T00:01:00.614Z,1023.55
2022-08-11T00:02:00.440Z,1023.56
2022-08-11T00:03:00.165Z,1023.55
2022-08-11T00:03:59.916Z,1023.54
2022-08-11T00:04:59.611Z,1023.59
2022-08-11T00:06:01.361Z,1023.58
2022-08-11T00:07:01.166Z,1023.59
2022-08-11T00:08:00.864Z,1023.64
2022-08-11T00:09:00.561Z,1023.67
2022-08-11T00:10:00.265Z,1023.71
2022-08-11T00:10:59.958Z,1023.73
2022-08-11T00:11:59.896Z,1023.68
2022-08-11T00:13:00.612Z,1023.68
2022-08-11T00:14:00.560Z,1023.66
2022-08-11T00:15:00.322Z,1023.67
2022-08-11T00:15:59.987Z,1023.65
2022-08-11T00:16:59.695Z,1023.65
2022-08-11T00:18:01.432Z,1023.68
2022-08-11T00:19:01.132Z,1023.69
2022-08-11T00:20:12.273Z,1023.69
2022-08-11T00:21:00.790Z,1023.75
2022-08-11T00:22:05.317Z,1023.73
2022-08-11T00:23:01.602Z,1023.74
2022-08-11T00:24:01.066Z,1023.75
2022-08-11T00:25:02.664Z,1023.7
2022-08-11T00:26:00.973Z,1023.68
2022-08-11T00:27:00.682Z,1023.65
2022-08-11T00:28:00.334Z,1023.61
2022-08-11T00:28:59.994Z,1023.63
2022-08-11T00:29:59.668Z,1023.66
2022-08-11T00:31:01.335Z,1023.63
2022-08-11T00:32:00.702Z,1023.65
2022-08-11T00:33:00.429Z,1023.6
2022-08-11T00:34:00.065Z,1023.59
2022-08-11T00:35:54.809Z,1023.54
2022-08-11T00:36:01.333Z,1023.58
2022-08-11T00:37:01.235Z,1023.55
2022-08-11T00:38:00.972Z,1023.56
2022-08-11T00:39:00.894Z,1023.59
2022-08-11T00:40:00.597Z,1023.58
2022-08-11T00:41:00.481Z,1023.61
2022-08-11T00:42:00.125Z,1023.61
2022-08-11T00:42:59.859Z,1023.6
2022-08-11T00:44:01.640Z,1023.64
2022-08-11T00:45:02.133Z,1023.58
2022-08-11T00:46:00.710Z,1023.56
2022-08-11T00:47:00.412Z,1023.58
2022-08-11T00:48:00.566Z,1023.62
2022-08-11T00:49:00.575Z,1023.6
2022-08-11T00:50:00.247Z,1023.59
2022-08-11T00:50:59.914Z,1023.58
2022-08-11T00:52:05.436Z,1023.6
2022-08-11T00:53:00.642Z,1023.6
2022-08-11T00:54:00.397Z,1023.63
2022-08-11T00:55:00.174Z,1023.62
2022-08-11T00:55:59.847Z,1023.57
2022-08-11T00:57:01.600Z,1023.59
2022-08-11T00:58:00.782Z,1023.65
2022-08-11T00:59:00.662Z,1023.62
2022-08-11T01:00:03.818Z,1023.64
2022-08-11T01:01:01.094Z,1023.61
2022-08-11T01:02:00.912Z,1023.61
2022-08-11T01:03:00.597Z,1023.62
2022-08-11T01:04:00.328Z,1023.59
2022-08-11T01:05:00.123Z,1023.61
2022-08-11T01:06:00.208Z,1023.61
2022-08-11T01:06:59.933Z,1023.61
2022-08-11T01:08:03.319Z,1023.66
2022-08-11T01:09:00.684Z,1023.61
2022-08-11T01:10:05.052Z,1023.61
2022-08-11T01:11:01.591Z,1023.62
2022-08-11T01:12:03.553Z,1023.65
2022-08-11T01:13:01.493Z,1023.63
2022-08-11T01:14:00.917Z,1023.63
2022-08-11T01:15:00.656Z,1023.66
2022-08-11T01:16:00.440Z,1023.65
2022-08-11T01:17:08.980Z,1023.66
2022-08-11T01:18:01.540Z,1023.63
2022-08-11T01:19:01.067Z,1023.62
2022-08-11T01:20:39.375Z,1023.57
2022-08-11T01:21:00.860Z,1023.56
2022-08-11T01:22:08.807Z,1023.58
2022-08-11T01:23:00.642Z,1023.62
2022-08-11T01:24:00.384Z,1023.59
2022-08-11T01:25:00.176Z,1023.58
2022-08-11T01:25:59.834Z,1023.59
2022-08-11T01:27:19.262Z,1023.62
2022-08-11T01:28:01.502Z,1023.62
2022-08-11T01:29:01.398Z,1023.61
2022-08-11T01:30:01.098Z,1023.66
2022-08-11T01:31:00.791Z,1023.63
2022-08-11T01:32:14.350Z,1023.66
2022-08-11T01:33:01.520Z,1023.64
2022-08-11T01:34:00.801Z,1023.62
2022-08-11T01:35:01.464Z,1023.63
2022-08-11T01:36:01.228Z,1023.65
2022-08-11T01:37:15.212Z,1023.61
2022-08-11T01:38:01.366Z,1023.58
2022-08-11T01:39:00.918Z,1023.61
2022-08-11T01:40:00.644Z,1023.6
2022-08-11T01:41:00.346Z,1023.55
2022-08-11T01:42:00.051Z,1023.6
2022-08-11T01:42:59.759Z,1023.62
2022-08-11T01:44:01.950Z,1023.63
2022-08-11T01:45:01.466Z,1023.61
2022-08-11T01:46:01.427Z,1023.63
2022-08-11T01:47:00.855Z,1023.61
2022-08-11T01:48:01.113Z,1023.62
2022-08-11T01:49:00.807Z,1023.65
2022-08-11T01:50:08.105Z,1023.63
2022-08-11T01:51:01.021Z,1023.65
2022-08-11T01:52:00.721Z,1023.63
2022-08-11T01:53:00.438Z,1023.67
2022-08-11T01:54:00.143Z,1023.66
2022-08-11T01:54:59.830Z,1023.66
2022-08-11T01:56:02.406Z,1023.68
2022-08-11T01:57:00.833Z,1023.7
2022-08-11T01:58:00.544Z,1023.69
2022-08-11T01:59:00.260Z,1023.69
2022-08-11T01:59:59.845Z,1023.64
2022-08-11T02:01:03.009Z,1023.66
2022-08-11T02:02:00.789Z,1023.68
2022-08-11T02:03:00.514Z,1023.65
2022-08-11T02:04:00.190Z,1023.67
2022-08-11T02:04:59.789Z,1023.7
2022-08-11T02:06:01.673Z,1023.73
2022-08-11T02:07:00.899Z,1023.77
2022-08-11T02:08:00.567Z,1023.69
2022-08-11T02:09:00.563Z,1023.71
2022-08-11T02:10:00.935Z,1023.73
2022-08-11T02:11:01.382Z,1023.74
2022-08-11T02:12:01.754Z,1023.72
2022-08-11T02:13:01.588Z,1023.74
2022-08-11T02:14:00.771Z,1023.73
2022-08-11T02:15:05.013Z,1023.69
2022-08-11T02:16:01.411Z,1023.72
2022-08-11T02:17:00.944Z,1023.71
2022-08-11T02:18:00.694Z,1023.71
2022-08-11T02:19:00.694Z,1023.63
2022-08-11T02:20:00.303Z,1023.67
2022-08-11T02:21:00.257Z,1023.68
2022-08-11T02:22:00.146Z,1023.71
2022-08-11T02:22:59.797Z,1023.7
2022-08-11T02:24:06.962Z,1023.68
2022-08-11T02:25:01.459Z,1023.67
2022-08-11T02:26:00.755Z,1023.68
2022-08-11T02:27:00.409Z,1023.66
2022-08-11T02:28:00.184Z,1023.68
2022-08-11T02:28:59.946Z,1023.74
2022-08-11T02:29:59.610Z,1023.72
2022-08-11T02:31:01.425Z,1023.72
2022-08-11T02:32:24.151Z,1023.7
2022-08-11T02:33:01.204Z,1023.68
2022-08-11T02:34:00.901Z,1023.69
2022-08-11T02:35:00.857Z,1023.68
2022-08-11T02:36:00.605Z,1023.71
2022-08-11T02:37:00.320Z,1023.66
2022-08-11T02:37:59.988Z,1023.68
2022-08-11T02:38:59.715Z,1023.65
2022-08-11T02:40:01.396Z,1023.68
2022-08-11T02:41:01.065Z,1023.66
2022-08-11T02:42:01.061Z,1023.69
2022-08-11T02:43:00.675Z,1023.66
2022-08-11T02:44:00.340Z,1023.65
2022-08-11T02:45:00.067Z,1023.67
2022-08-11T02:45:59.745Z,1023.71
2022-08-11T02:47:01.465Z,1023.69
2022-08-11T02:48:01.311Z,1023.65
2022-08-11T02:49:01.008Z,1023.69
2022-08-11T02:50:07.637Z,1023.67
2022-08-11T02:51:00.809Z,1023.65
2022-08-11T02:52:00.982Z,1023.68
2022-08-11T02:53:01.692Z,1023.67
2022-08-11T02:54:00.975Z,1023.63
2022-08-11T02:55:00.623Z,1023.63
2022-08-11T02:56:00.333Z,1023.65
2022-08-11T02:57:00.025Z,1023.65
2022-08-11T02:57:59.698Z,1023.67
2022-08-11T02:59:01.368Z,1023.65
2022-08-11T03:00:01.027Z,1023.63
2022-08-11T03:01:00.770Z,1023.62
2022-08-11T03:02:04.886Z,1023.63
2022-08-11T03:03:00.712Z,1023.64
2022-08-11T03:04:00.391Z,1023.62
2022-08-11T03:05:00.091Z,1023.62
2022-08-11T03:05:59.772Z,1023.64
2022-08-11T03:07:02.472Z,1023.62
2022-08-11T03:08:02.288Z,1023.6
2022-08-11T03:09:00.823Z,1023.64
2022-08-11T03:10:00.519Z,1023.62
2022-08-11T03:11:00.240Z,1023.58
2022-08-11T03:11:59.880Z,1023.67
2022-08-11T03:13:00.238Z,1023.64
2022-08-11T03:14:00.213Z,1023.64
2022-08-11T03:14:59.946Z,1023.6
2022-08-11T03:15:59.655Z,1023.63
2022-08-11T03:17:01.562Z,1023.67
2022-08-11T03:18:01.833Z,1023.66
2022-08-11T03:19:01.315Z,1023.65
2022-08-11T03:20:01.116Z,1023.62
2022-08-11T03:21:00.908Z,1023.65
2022-08-11T03:22:03.585Z,1023.61
2022-08-11T03:23:05.344Z,1023.6
2022-08-11T03:24:01.251Z,1023.59
2022-08-11T03:25:00.929Z,1023.62
2022-08-11T03:26:00.596Z,1023.64
2022-08-11T03:27:00.216Z,1023.62
2022-08-11T03:28:06.920Z,1023.61
2022-08-11T03:29:00.980Z,1023.61
2022-08-11T03:30:00.658Z,1023.59
2022-08-11T03:31:00.305Z,1023.58
2022-08-11T03:32:00.152Z,1023.57
2022-08-11T03:33:10.463Z,1023.58
2022-08-11T03:34:06.037Z,1023.64
2022-08-11T03:35:01.575Z,1023.61
2022-08-11T03:36:00.707Z,1023.62
2022-08-11T03:37:16.822Z,1023.68
2022-08-11T03:38:11.507Z,1023.66
2022-08-11T03:39:00.740Z,1023.65
2022-08-11T03:40:00.597Z,1023.69
2022-08-11T03:41:00.339Z,1023.7
2022-08-11T03:42:03.649Z,1023.69
2022-08-11T03:43:14.762Z,1023.72
2022-08-11T03:44:01.327Z,1023.71
2022-08-11T03:45:01.061Z,1023.71
2022-08-11T03:46:00.758Z,1023.69
2022-08-11T03:47:00.485Z,1023.68
2022-08-11T03:48:00.211Z,1023.65
2022-08-11T03:48:59.899Z,1023.67
2022-08-11T03:49:59.566Z,1023.68
2022-08-11T03:51:01.308Z,1023.68
2022-08-11T03:52:01.828Z,1023.69
2022-08-11T03:53:01.017Z,1023.71
2022-08-11T03:54:00.722Z,1023.68
2022-08-11T03:55:00.361Z,1023.71
2022-08-11T03:56:00.010Z,1023.66
2022-08-11T03:56:59.816Z,1023.7
2022-08-11T03:58:01.558Z,1023.72
2022-08-11T03:59:01.366Z,1023.7
2022-08-11T04:00:01.057Z,1023.72
2022-08-11T04:01:00.867Z,1023.73
2022-08-11T04:02:00.751Z,1023.73
2022-08-11T04:03:00.727Z,1023.73
2022-08-11T04:04:00.492Z,1023.76
2022-08-11T04:05:00.218Z,1023.73
2022-08-11T04:05:59.898Z,1023.69
2022-08-11T04:07:01.130Z,1023.72
2022-08-11T04:08:00.703Z,1023.71
2022-08-11T04:09:01.407Z,1023.69
2022-08-11T04:10:00.617Z,1023.7
2022-08-11T04:11:00.299Z,1023.7
2022-08-11T04:12:00.065Z,1023.67
2022-08-11T04:12:59.868Z,1023.74
2022-08-11T04:13:59.538Z,1023.72
2022-08-11T04:15:01.316Z,1023.75
2022-08-11T04:16:01.039Z,1023.73
2022-08-11T04:17:01.436Z,1023.71
2022-08-11T04:18:00.603Z,1023.74
2022-08-11T04:19:00.285Z,1023.72
2022-08-11T04:20:00.298Z,1023.74
2022-08-11T04:20:59.974Z,1023.76
2022-08-11T04:21:59.687Z,1023.73
2022-08-11T04:23:01.412Z,1023.73
2022-08-11T04:24:36.060Z,1023.71
2022-08-11T04:25:01.130Z,1023.75
2022-08-11T04:26:00.830Z,1023.74
2022-08-11T04:27:01.919Z,1023.7
2022-08-11T04:28:01.156Z,1023.77
2022-08-11T04:29:00.651Z,1023.76
2022-08-11T04:30:03.300Z,1023.72
2022-08-11T04:31:01.492Z,1023.76
2022-08-11T04:32:00.844Z,1023.73
2022-08-11T04:33:00.574Z,1023.76
2022-08-11T04:34:00.739Z,1023.75
2022-08-11T04:35:00.353Z,1023.74
2022-08-11T04:36:00.128Z,1023.75
2022-08-11T04:36:59.868Z,1023.75
2022-08-11T04:38:01.614Z,1023.75
2022-08-11T04:39:01.542Z,1023.76
2022-08-11T04:40:01.234Z,1023.73
2022-08-11T04:41:01.027Z,1023.79
2022-08-11T04:42:00.750Z,1023.75
2022-08-11T04:43:00.453Z,1023.78
2022-08-11T04:44:05.545Z,1023.77
2022-08-11T04:45:01.149Z,1023.78
2022-08-11T04:46:00.966Z,1023.8
2022-08-11T04:47:00.662Z,1023.79
2022-08-11T04:48:03.570Z,1023.79
2022-08-11T04:49:01.366Z,1023.82
2022-08-11T04:50:00.680Z,1023.83
2022-08-11T04:51:00.744Z,1023.78
2022-08-11T04:52:01.105Z,1023.76
2022-08-11T04:53:00.793Z,1023.78
2022-08-11T04:54:00.425Z,1023.81
2022-08-11T04:55:00.210Z,1023.79
2022-08-11T04:55:59.994Z,1023.82
2022-08-11T04:56:59.700Z,1023.81
2022-08-11T04:58:01.442Z,1023.82
2022-08-11T04:59:01.162Z,1023.82
2022-08-11T05:00:00.847Z,1023.82
2022-08-11T05:01:00.667Z,1023.81
2022-08-11T05:02:00.774Z,1023.83
2022-08-11T05:03:00.628Z,1023.79
2022-08-11T05:04:00.271Z,1023.8
2022-08-11T05:04:59.977Z,1023.78
2022-08-11T05:05:59.695Z,1023.78
2022-08-11T05:07:01.376Z,1023.81
2022-08-11T05:08:01.013Z,1023.84
2022-08-11T05:09:01.712Z,1023.81
2022-08-11T05:10:00.918Z,1023.79
2022-08-11T05:11:00.558Z,1023.83
2022-08-11T05:12:02.058Z,1023.84
2022-08-11T05:13:01.240Z,1023.86
2022-08-11T05:14:03.185Z,1023.86
2022-08-11T05:15:01.607Z,1023.82
2022-08-11T05:16:00.973Z,1023.82
2022-08-11T05:17:00.659Z,1023.84
2022-08-11T05:18:00.854Z,1023.83
2022-08-11T05:19:06.144Z,1023.86
2022-08-11T05:20:01.291Z,1023.86
2022-08-11T05:21:04.874Z,1023.91
2022-08-11T05:22:01.492Z,1023.91
2022-08-11T05:23:01.265Z,1023.91
2022-08-11T05:24:07.079Z,1023.92
2022-08-11T05:25:00.934Z,1023.9
2022-08-11T05:26:44.461Z,1023.95
2022-08-11T05:27:01.297Z,1023.94
2022-08-11T05:28:01.226Z,1023.96
2022-08-11T05:29:20.165Z,1023.95
2022-08-11T05:30:01.141Z,1023.98
2022-08-11T05:31:00.744Z,1023.97
2022-08-11T05:32:00.471Z,1024.03
2022-08-11T05:33:02.268Z,1023.97
2022-08-11T05:34:11.372Z,1024.01
2022-08-11T05:35:01.090Z,1024
2022-08-11T05:36:03.190Z,1024.02
2022-08-11T05:37:23.915Z,1024.02
2022-08-11T05:38:01.297Z,1024
2022-08-11T05:39:11.630Z,1024.03
2022-08-11T05:40:00.987Z,1023.99
2022-08-11T05:41:00.736Z,1024.01
2022-08-11T05:42:00.419Z,1024.01
2022-08-11T05:43:00.086Z,1024.02
2022-08-11T05:44:21.174Z,1024.02
2022-08-11T05:45:00.785Z,1024.04
2022-08-11T05:46:03.610Z,1024.03
2022-08-11T05:47:01.260Z,1024.03
2022-08-11T05:48:00.752Z,1024.02
2022-08-11T05:49:00.391Z,1024
2022-08-11T05:50:00.046Z,1024.01
2022-08-11T05:51:00.626Z,1024
2022-08-11T05:52:05.015Z,1024.02
2022-08-11T05:53:00.697Z,1024.03
2022-08-11T05:54:00.998Z,1024.06
2022-08-11T05:55:06.251Z,1024.04
2022-08-11T05:56:03.164Z,1024.08
2022-08-11T05:57:01.869Z,1024.1
2022-08-11T05:58:01.258Z,1024.06
2022-08-11T05:59:00.615Z,1024.09
2022-08-11T06:00:00.635Z,1024.07
2022-08-11T06:01:00.437Z,1024.05
2022-08-11T06:02:00.585Z,1024.1
2022-08-11T06:03:00.549Z,1024.1
2022-08-11T06:04:00.247Z,1024.1
2022-08-11T06:04:59.977Z,1024.1
2022-08-11T06:05:59.647Z,1024.13
2022-08-11T06:07:01.410Z,1024.11
2022-08-11T06:08:01.084Z,1024.12
2022-08-11T06:09:01.138Z,1024.14
2022-08-11T06:10:00.895Z,1024.14
2022-08-11T06:11:00.554Z,1024.11
2022-08-11T06:12:01.534Z,1024.16
2022-08-11T06:13:01.444Z,1024.12
2022-08-11T06:14:00.652Z,1024.11
2022-08-11T06:15:01.129Z,1024.12
2022-08-11T06:16:06.237Z,1024.13
2022-08-11T06:17:01.154Z,1024.16
2022-08-11T06:18:00.996Z,1024.15
2022-08-11T06:19:00.759Z,1024.14
2022-08-11T06:20:06.992Z,1024.16
2022-08-11T06:21:01.594Z,1024.13
2022-08-11T06:22:01.252Z,1024.13
2022-08-11T06:23:01.359Z,1024.15
2022-08-11T06:24:00.984Z,1024.15
2022-08-11T06:25:00.687Z,1024.18
2022-08-11T06:26:00.393Z,1024.12
2022-08-11T06:27:15.550Z,1024.12
2022-08-11T06:28:01.245Z,1024.14
2022-08-11T06:29:00.910Z,1024.13
2022-08-11T06:30:00.814Z,1024.19
2022-08-11T06:31:00.642Z,1024.15
2022-08-11T06:32:00.427Z,1024.19
2022-08-11T06:33:00.273Z,1024.23
2022-08-11T06:34:00.827Z,1024.18
2022-08-11T06:35:00.554Z,1024.25
2022-08-11T06:36:00.202Z,1024.24
2022-08-11T06:36:59.848Z,1024.28
2022-08-11T06:38:01.535Z,1024.28
2022-08-11T06:39:01.201Z,1024.29
2022-08-11T06:40:01.066Z,1024.31
2022-08-11T06:41:01.606Z,1024.3
2022-08-11T06:42:01.418Z,1024.31
2022-08-11T06:43:01.109Z,1024.36
2022-08-11T06:44:05.234Z,1024.32
2022-08-11T06:45:00.777Z,1024.33
2022-08-11T06:46:01.142Z,1024.32
2022-08-11T06:47:00.829Z,1024.33
2022-08-11T06:48:00.534Z,1024.31
2022-08-11T06:49:00.246Z,1024.34
2022-08-11T06:49:59.885Z,1024.31
2022-08-11T06:50:59.579Z,1024.32
2022-08-11T06:52:01.668Z,1024.31
2022-08-11T06:53:01.819Z,1024.29
2022-08-11T06:54:04.221Z,1024.31
2022-08-11T06:55:01.502Z,1024.37
2022-08-11T06:56:00.792Z,1024.31
2022-08-11T06:57:34.198Z,1024.37
2022-08-11T06:58:01.131Z,1024.32
2022-08-11T06:59:00.815Z,1024.34
2022-08-11T07:00:00.845Z,1024.32
2022-08-11T07:01:00.731Z,1024.3
2022-08-11T07:02:00.510Z,1024.24
2022-08-11T07:03:00.197Z,1024.24
2022-08-11T07:03:59.923Z,1024.26
2022-08-11T07:04:59.617Z,1024.27
2022-08-11T07:06:01.371Z,1024.25
2022-08-11T07:07:01.321Z,1024.28
2022-08-11T07:08:33.262Z,1024.27
2022-08-11T07:09:01.087Z,1024.27
2022-08-11T07:10:00.772Z,1024.27
2022-08-11T07:11:01.318Z,1024.23
2022-08-11T07:12:00.904Z,1024.15
2022-08-11T07:13:00.537Z,1024.16
2022-08-11T07:14:00.252Z,1024.13
2022-08-11T07:15:00.566Z,1024.13
2022-08-11T07:16:11.224Z,1024.14
2022-08-11T07:17:01.257Z,1024.09
2022-08-11T07:18:00.941Z,1024.11
2022-08-11T07:19:00.591Z,1024.12
2022-08-11T07:20:00.352Z,1024.1
2022-08-11T07:21:02.300Z,1024.09
2022-08-11T07:22:03.915Z,1024.1
2022-08-11T07:23:01.783Z,1024.08
2022-08-11T07:24:00.822Z,1024.1
2022-08-11T07:25:02.988Z,1024.09
2022-08-11T07:26:00.779Z,1024.1
2022-08-11T07:27:00.492Z,1024.11
2022-08-11T07:28:00.224Z,1024.14
2022-08-11T07:28:59.982Z,1024.13
2022-08-11T07:29:59.641Z,1024.07
2022-08-11T07:31:01.565Z,1024.07
2022-08-11T07:32:01.336Z,1024.07
2022-08-11T07:33:00.568Z,1024
2022-08-11T07:34:08.168Z,1024.04
2022-08-11T07:35:01.289Z,1024.01
2022-08-11T07:36:00.971Z,1024.02
2022-08-11T07:37:00.651Z,1024.02
2022-08-11T07:38:01.778Z,1024.01
2022-08-11T07:39:01.315Z,1024.02
2022-08-11T07:40:01.661Z,1023.95
2022-08-11T07:41:01.074Z,1023.96
2022-08-11T07:42:00.777Z,1023.89
2022-08-11T07:43:00.513Z,1023.94
2022-08-11T07:44:00.288Z,1023.92
2022-08-11T07:45:05.098Z,1023.91
2022-08-11T07:46:02.258Z,1023.88
2022-08-11T07:47:01.726Z,1023.91
2022-08-11T07:48:00.929Z,1023.91
2022-08-11T07:49:01.638Z,1023.87
2022-08-11T07:50:08.947Z,1023.87
2022-08-11T07:51:01.370Z,1023.85
2022-08-11T07:52:00.751Z,1023.88
2022-08-11T07:53:00.447Z,1023.92
2022-08-11T07:54:07.462Z,1023.88
2022-08-11T07:55:13.046Z,1023.86
2022-08-11T07:56:00.739Z,1023.88
2022-08-11T07:57:08.932Z,1023.85
2022-08-11T07:58:15.803Z,1023.86
2022-08-11T07:59:06.276Z,1023.84
2022-08-11T08:00:04.622Z,1023.83
2022-08-11T08:01:01.751Z,1023.85
2022-08-11T08:02:01.105Z,1023.83
2022-08-11T08:03:00.612Z,1023.78
2022-08-11T08:04:00.411Z,1023.79
2022-08-11T08:05:00.076Z,1023.79
2022-08-11T08:05:59.732Z,1023.77
2022-08-11T08:07:01.393Z,1023.77
2022-08-11T08:08:01.167Z,1023.77
2022-08-11T08:09:00.868Z,1023.76
2022-08-11T08:10:00.768Z,1023.75
2022-08-11T08:11:00.486Z,1023.79
2022-08-11T08:12:00.275Z,1023.75
2022-08-11T08:12:59.957Z,1023.77
2022-08-11T08:13:59.665Z,1023.78
2022-08-11T08:15:01.621Z,1023.75
2022-08-11T08:16:01.365Z,1023.77
2022-08-11T08:17:01.005Z,1023.7
2022-08-11T08:18:09.979Z,1023.74
2022-08-11T08:19:00.725Z,1023.76
2022-08-11T08:20:00.551Z,1023.75
2022-08-11T08:21:00.218Z,1023.7
2022-08-11T08:22:04.349Z,1023.72
2022-08-11T08:23:00.955Z,1023.71
2022-08-11T08:24:00.658Z,1023.67
2022-08-11T08:25:00.862Z,1023.69
2022-08-11T08:26:01.309Z,1023.7
2022-08-11T08:27:00.773Z,1023.64
2022-08-11T08:28:00.492Z,1023.67
2022-08-11T08:29:00.150Z,1023.71
2022-08-11T08:29:59.885Z,1023.73
2022-08-11T08:30:59.728Z,1023.65
2022-08-11T08:32:01.891Z,1023.66
2022-08-11T08:33:02.310Z,1023.69
2022-08-11T08:34:00.614Z,1023.7
2022-08-11T08:35:00.328Z,1023.67
2022-08-11T08:36:00.019Z,1023.65
2022-08-11T08:36:59.925Z,1023.63
2022-08-11T08:37:59.621Z,1023.68
2022-08-11T08:39:01.362Z,1023.65
2022-08-11T08:40:01.080Z,1023.67
2022-08-11T08:41:00.776Z,1023.66
2022-08-11T08:42:01.319Z,1023.61
2022-08-11T08:43:00.979Z,1023.68
2022-08-11T08:44:27.341Z,1023.74
2022-08-11T08:45:01.001Z,1023.74
2022-08-11T08:46:00.693Z,1023.73
2022-08-11T08:47:00.406Z,1023.72
2022-08-11T08:48:00.104Z,1023.74
2022-08-11T08:48:59.768Z,1023.7
2022-08-11T08:50:02.118Z,1023.72
2022-08-11T08:51:01.450Z,1023.69
2022-08-11T08:52:26.513Z,1023.66
2022-08-11T08:53:01.165Z,1023.66
2022-08-11T08:54:00.858Z,1023.64
2022-08-11T08:55:00.665Z,1023.62
2022-08-11T08:56:00.358Z,1023.66
2022-08-11T08:56:59.997Z,1023.63
2022-08-11T08:57:59.761Z,1023.6
2022-08-11T08:59:01.393Z,1023.66
2022-08-11T09:00:01.127Z,1023.64
2022-08-11T09:01:01.386Z,1023.65
2022-08-11T09:02:01.104Z,1023.62
2022-08-11T09:03:12.506Z,1023.61
2022-08-11T09:04:05.217Z,1023.63
2022-08-11T09:05:00.809Z,1023.57
2022-08-11T09:06:00.498Z,1023.64
2022-08-11T09:07:00.217Z,1023.57
2022-08-11T09:08:01.226Z,1023.56
2022-08-11T09:09:00.646Z,1023.57
2022-08-11T09:10:00.357Z,1023.56
2022-08-11T09:11:00.345Z,1023.58
2022-08-11T09:11:59.977Z,1023.54
2022-08-11T09:12:59.782Z,1023.52
2022-08-11T09:14:04.819Z,1023.51
2022-08-11T09:15:01.457Z,1023.5
2022-08-11T09:16:01.202Z,1023.52
2022-08-11T09:17:00.905Z,1023.51
2022-08-11T09:18:00.529Z,1023.48
2022-08-11T09:19:00.219Z,1023.53
2022-08-11T09:19:59.907Z,1023.52
2022-08-11T09:20:59.698Z,1023.49
2022-08-11T09:22:01.362Z,1023.47
2022-08-11T09:23:54.640Z,1023.45
2022-08-11T09:24:14.777Z,1023.48
2022-08-11T09:25:01.075Z,1023.55
2022-08-11T09:26:00.755Z,1023.51
2022-08-11T09:27:00.459Z,1023.5
2022-08-11T09:28:00.236Z,1023.5
2022-08-11T09:28:59.956Z,1023.48
2022-08-11T09:29:59.647Z,1023.43
2022-08-11T09:31:04.135Z,1023.41
2022-08-11T09:32:00.894Z,1023.42
2022-08-11T09:33:00.593Z,1023.49
2022-08-11T09:34:00.327Z,1023.49
2022-08-11T09:34:59.994Z,1023.49
2022-08-11T09:36:02.876Z,1023.54
2022-08-11T09:37:00.726Z,1023.5
2022-08-11T09:38:01.427Z,1023.52
2022-08-11T09:39:01.362Z,1023.47
2022-08-11T09:40:01.441Z,1023.47
2022-08-11T09:41:06.737Z,1023.47
2022-08-11T09:42:03.487Z,1023.45
2022-08-11T09:43:01.504Z,1023.48
2022-08-11T09:44:04.165Z,1023.49
2022-08-11T09:45:01.183Z,1023.47
2022-08-11T09:46:11.440Z,1023.45
2022-08-11T09:47:00.790Z,1023.53
2022-08-11T09:48:00.598Z,1023.46
2022-08-11T09:49:01.190Z,1023.48
2022-08-11T09:50:01.502Z,1023.48
2022-08-11T09:51:10.871Z,1023.43
2022-08-11T09:52:05.318Z,1023.46
2022-08-11T09:53:37.156Z,1023.42
2022-08-11T09:54:02.817Z,1023.45
2022-08-11T09:55:00.890Z,1023.39
2022-08-11T09:56:15.507Z,1023.36
2022-08-11T09:57:05.170Z,1023.36
2022-08-11T09:58:00.734Z,1023.41
2022-08-11T09:59:00.412Z,1023.37
2022-08-11T10:00:12.413Z,1023.42
2022-08-11T10:01:01.379Z,1023.39
2022-08-11T10:02:01.197Z,1023.37
2022-08-11T10:03:00.607Z,1023.38
2022-08-11T10:04:00.308Z,1023.4
2022-08-11T10:04:59.967Z,1023.4
2022-08-11T10:06:02.380Z,1023.33
2022-08-11T10:07:01.026Z,1023.27
2022-08-11T10:08:01.238Z,1023.28
2022-08-11T10:09:01.792Z,1023.26
2022-08-11T10:10:02.181Z,1023.3
2022-08-11T10:11:01.461Z,1023.29
2022-08-11T10:12:01.279Z,1023.24
2022-08-11T10:13:01.392Z,1023.27
2022-08-11T10:14:32.760Z,1023.25
2022-08-11T10:15:01.195Z,1023.24
2022-08-11T10:16:15.151Z,1023.29
2022-08-11T10:17:01.117Z,1023.27
2022-08-11T10:18:00.936Z,1023.26
2022-08-11T10:19:00.702Z,1023.24
2022-08-11T10:20:04.156Z,1023.24
2022-08-11T10:21:02.086Z,1023.24
2022-08-11T10:22:01.218Z,1023.18
2022-08-11T10:23:00.734Z,1023.18
2022-08-11T10:24:05.578Z,1023.17
2022-08-11T10:25:01.446Z,1023.16
2022-08-11T10:26:01.512Z,1023.15
2022-08-11T10:27:01.259Z,1023.18
2022-08-11T10:28:28.223Z,1023.13
2022-08-11T10:29:12.622Z,1023.07
2022-08-11T10:30:01.182Z,1023.08
2022-08-11T10:31:01.085Z,1023.07
2022-08-11T10:32:04.452Z,1023
2022-08-11T10:33:01.209Z,1022.95
2022-08-11T10:34:00.874Z,1022.99
2022-08-11T10:35:00.943Z,1023.01
2022-08-11T10:36:01.141Z,1022.96
2022-08-11T10:37:00.879Z,1022.97
2022-08-11T10:38:06.093Z,1022.97
2022-08-11T10:39:00.632Z,1022.95
2022-08-11T10:40:00.345Z,1022.93
2022-08-11T10:40:59.987Z,1022.94
2022-08-11T10:42:03.402Z,1022.9
2022-08-11T10:43:01.221Z,1022.99
2022-08-11T10:44:02.375Z,1022.95
2022-08-11T10:45:01.139Z,1022.93
2022-08-11T10:46:00.936Z,1022.94
2022-08-11T10:47:00.682Z,1022.98
2022-08-11T10:48:00.377Z,1022.96
2022-08-11T10:49:00.480Z,1022.99
2022-08-11T10:50:00.213Z,1022.96
2022-08-11T10:51:01.234Z,1022.84
2022-08-11T10:52:00.713Z,1022.88
2022-08-11T10:53:00.446Z,1022.87
2022-08-11T10:54:00.235Z,1022.89
2022-08-11T10:54:59.911Z,1022.92
2022-08-11T10:55:59.697Z,1022.91
2022-08-11T10:57:01.453Z,1022.9
2022-08-11T10:58:05.105Z,1022.86
2022-08-11T10:59:04.027Z,1022.87
2022-08-11T11:00:01.225Z,1022.79
2022-08-11T11:01:01.229Z,1022.81
2022-08-11T11:02:01.266Z,1022.85
2022-08-11T11:03:22.658Z,1022.87
2022-08-11T11:04:01.068Z,1022.85
2022-08-11T11:05:00.855Z,1022.82
2022-08-11T11:06:27.746Z,1022.84
2022-08-11T11:07:01.315Z,1022.83
2022-08-11T11:08:01.079Z,1022.83
2022-08-11T11:09:04.105Z,1022.8
2022-08-11T11:10:02.152Z,1022.74
2022-08-11T11:11:01.654Z,1022.75
2022-08-11T11:12:01.248Z,1022.73
2022-08-11T11:13:00.944Z,1022.74
2022-08-11T11:14:00.851Z,1022.62
2022-08-11T11:15:00.667Z,1022.65
2022-08-11T11:16:00.375Z,1022.65
2022-08-11T11:17:00.324Z,1022.59
2022-08-11T11:18:00.065Z,1022.6
2022-08-11T11:19:00.949Z,1022.64
2022-08-11T11:20:00.800Z,1022.64
2022-08-11T11:21:00.481Z,1022.62
2022-08-11T11:22:00.236Z,1022.63
2022-08-11T11:23:00.129Z,1022.6
2022-08-11T11:23:59.803Z,1022.58
2022-08-11T11:25:01.547Z,1022.56
2022-08-11T11:26:00.722Z,1022.53
2022-08-11T11:27:04.439Z,1022.55
2022-08-11T11:28:01.366Z,1022.56
2022-08-11T11:29:01.054Z,1022.52
2022-08-11T11:30:00.878Z,1022.56
2022-08-11T11:31:00.681Z,1022.54
2022-08-11T11:32:08.684Z,1022.5
2022-08-11T11:33:01.511Z,1022.53
2022-08-11T11:34:06.395Z,1022.46
2022-08-11T11:35:01.315Z,1022.45
2022-08-11T11:36:01.007Z,1022.46
2022-08-11T11:37:09.180Z,1022.44
2022-08-11T11:38:04.318Z,1022.43
2022-08-11T11:39:00.924Z,1022.43
2022-08-11T11:40:00.613Z,1022.44
2022-08-11T11:41:00.284Z,1022.47
2022-08-11T11:42:12.912Z,1022.4
2022-08-11T11:43:00.995Z,1022.38
2022-08-11T11:44:01.585Z,1022.37
2022-08-11T11:45:01.610Z,1022.29
2022-08-11T11:46:01.032Z,1022.35
2022-08-11T11:47:00.774Z,1022.34
2022-08-11T11:48:01.537Z,1022.33
2022-08-11T11:49:01.213Z,1022.38
2022-08-11T11:50:01.091Z,1022.35
2022-08-11T11:51:00.756Z,1022.35
2022-08-11T11:52:00.488Z,1022.36
2022-08-11T11:53:00.206Z,1022.34
2022-08-11T11:54:00.804Z,1022.36
2022-08-11T11:55:00.449Z,1022.3
2022-08-11T11:56:00.100Z,1022.31
2022-08-11T11:56:59.843Z,1022.24
2022-08-11T11:58:02.537Z,1022.25
2022-08-11T11:59:01.677Z,1022.32
2022-08-11T12:00:00.662Z,1022.19
2022-08-11T12:01:00.595Z,1022.21
2022-08-11T12:02:00.365Z,1022.23
2022-08-11T12:03:00.218Z,1022.21
2022-08-11T12:03:59.959Z,1022.17
2022-08-11T12:04:59.643Z,1022.19
2022-08-11T12:06:01.293Z,1022.17
2022-08-11T12:07:01.017Z,1022.2
2022-08-11T12:08:12.644Z,1022.19